Impacts TAF Board INFO
FOR SITUATIONAL AWARENESS. NOT TO BE USED FOR FLIGHT PLANNING PURPOSES.
IDs:

KHUM - Houma/Terrebonne Arp, LA, US

Issued at 0814 UTC 17 Aug 2018
Updated at 0931 UTC 17 Aug 2018
Potential Impact None Slight Moderate High
Time<<17/22Z 17/23Z 18/00Z 18/01Z 18/02Z 18/03Z 18/04Z 18/05Z 18/06Z 18/07Z 18/08Z 18/09Z 18/10Z>>
Type PRVL PRVL PRVL PRVL PRVL PRVL PRVL PRVL
VIS >6 >6 >6 >6 >6 >6 >6 >6
CIG 150 150 150 -- -- -- -- --
Cover BKN BKN BKN SCT SCT SCT SCT SCT
FltCat VFR VFR VFR VFR VFR VFR VFR VFR
WX VCTS VCTS VCTS -- -- -- -- --
WDir 180 180 180 VRB VRB VRB VRB VRB
WSpd 4 4 4 5 5 5 5 5
WGst -- -- -- -- -- -- -- --

Raw TAF
KHUM 170814Z 1708/1806 00000KT P6SM VCSH SCT025
  FM171500 16004KT P6SM VCSH SCT030 BKN250
  FM171800 18004KT P6SM VCTS SCT025CB BKN150
  FM180100 VRB05KT P6SM FEW060 SCT250


METAR Board
Radar Display
Forecast Discussion

FOR SITUATIONAL AWARENESS. NOT TO BE USED FOR FLIGHT PLANNING PURPOSES.